Time;durP1;ratioP1;P1;durP2;ratioP2;P2;SDS_P1;SDS_P2;PMS_P1;PMS_P2;Temp;Humidity;BMP_temperature;BMP_pressure;BME280_temperature;BME280_humidity;BME280_pressure;Samples;Min_cycle;Max_cycle;Signal;HPM_P1;HPM_P2
2023/11/13 00:01:31;;;;;;;4.80;4.50;;;;;;;4.30;100.00;100361.94;6092563;23;20029;-69
2023/11/13 00:03:57;;;;;;;5.30;4.90;;;;;;;4.27;100.00;100349.91;6054128;23;20030;-69
2023/11/13 00:06:23;;;;;;;6.00;5.50;;;;;;;4.06;100.00;100306.41;6087432;23;20077;-69
2023/11/13 00:08:50;;;;;;;4.10;3.90;;;;;;;4.34;100.00;100346.19;6056630;23;20499;-69
2023/11/13 00:11:16;;;;;;;4.72;4.32;;;;;;;4.36;100.00;100348.75;6086086;23;20708;-68
2023/11/13 00:13:44;;;;;;;4.05;3.85;;;;;;;4.42;100.00;100347.69;6060686;23;20042;-69
2023/11/13 00:16:10;;;;;;;5.70;4.88;;;;;;;4.14;100.00;100294.88;6084019;23;20049;-70
2023/11/13 00:18:37;;;;;;;4.88;4.57;;;;;;;4.44;100.00;100345.91;6059027;23;20038;-70
2023/11/13 00:21:04;;;;;;;7.43;4.55;;;;;;;4.53;100.00;100368.97;6088952;23;20037;-69
2023/11/13 00:23:31;;;;;;;5.07;4.47;;;;;;;4.59;100.00;100367.03;6057381;23;20042;-69
2023/11/13 00:25:58;;;;;;;4.80;4.40;;;;;;;4.62;100.00;100375.66;6083566;23;20090;-69
2023/11/13 00:28:24;;;;;;;6.60;5.97;;;;;;;4.67;100.00;100389.31;6030923;23;20598;-68
2023/11/13 00:30:51;;;;;;;4.32;4.03;;;;;;;4.65;100.00;100386.78;6090671;23;20540;-69
2023/11/13 00:33:17;;;;;;;6.43;5.53;;;;;;;4.27;100.00;100302.28;6056090;23;20010;-69
2023/11/13 00:35:46;;;;;;;5.40;5.03;;;;;;;4.70;100.00;100360.63;6062517;23;20036;-69
2023/11/13 00:38:13;;;;;;;4.82;4.53;;;;;;;4.59;100.00;100334.97;6054571;23;20042;-69
2023/11/13 00:40:40;;;;;;;5.88;5.35;;;;;;;4.66;100.00;100344.28;6082849;23;20087;-68
2023/11/13 00:43:07;;;;;;;4.70;4.40;;;;;;;3.98;100.00;100247.78;6058987;23;20413;-69
2023/11/13 00:45:34;;;;;;;4.57;4.28;;;;;;;4.69;100.00;100348.53;6083339;23;20093;-69
2023/11/13 00:48:00;;;;;;;4.07;3.88;;;;;;;4.64;100.00;100348.69;6037316;23;20563;-69
2023/11/13 00:50:27;;;;;;;6.10;5.80;;;;;;;4.69;100.00;100366.72;6076697;23;20045;-69
2023/11/13 00:52:53;;;;;;;5.20;4.88;;;;;;;4.58;100.00;100334.16;6085926;23;20949;-68
2023/11/13 00:55:20;;;;;;;4.15;3.85;;;;;;;4.38;100.00;100298.44;6086356;23;20370;-68
2023/11/13 00:57:47;;;;;;;4.03;3.83;;;;;;;4.80;100.00;100359.44;6052406;23;20033;-69
2023/11/13 01:00:14;;;;;;;4.15;3.95;;;;;;;4.71;100.00;100338.94;6086836;23;20041;-69
2023/11/13 01:02:41;;;;;;;12.65;4.53;;;;;;;4.27;100.00;100259.00;6059657;23;22867;-69
2023/11/13 01:05:08;;;;;;;9.60;4.80;;;;;;;4.83;100.00;100340.25;6089690;23;20115;-69
2023/11/13 01:07:34;;;;;;;4.97;4.57;;;;;;;4.59;100.00;100302.06;6085387;23;20057;-69
2023/11/13 01:10:01;;;;;;;4.68;4.40;;;;;;;4.84;100.00;100335.03;6031415;23;20026;-69
2023/11/13 01:12:27;;;;;;;5.57;5.28;;;;;;;4.85;100.00;100330.66;6080672;23;20029;-69
2023/11/13 01:14:54;;;;;;;4.85;4.55;;;;;;;4.88;100.00;100328.81;6061336;23;20022;-69
2023/11/13 01:17:21;;;;;;;4.68;4.38;;;;;;;4.33;100.00;100240.59;6079831;23;20177;-68
2023/11/13 01:19:48;;;;;;;6.00;4.95;;;;;;;4.40;100.00;100252.47;6062083;23;20499;-68
2023/11/13 01:22:15;;;;;;;5.13;4.82;;;;;;;4.79;100.00;100295.31;6073877;23;20050;-68
2023/11/13 01:24:41;;;;;;;4.45;4.15;;;;;;;5.00;100.00;100317.13;6054217;23;20097;-69
2023/11/13 01:27:08;;;;;;;4.38;4.18;;;;;;;4.91;100.00;100288.84;6079447;23;20161;-68
2023/11/13 01:29:36;;;;;;;5.05;4.65;;;;;;;4.64;100.00;100255.13;6058290;23;20086;-68
2023/11/13 01:32:03;;;;;;;4.63;4.10;;;;;;;4.64;100.00;100236.94;6085964;23;20048;-68
2023/11/13 01:34:29;;;;;;;6.32;5.93;;;;;;;5.12;100.00;100321.91;6053538;23;20053;-69
2023/11/13 01:36:57;;;;;;;4.28;4.07;;;;;;;5.19;100.00;100302.56;6090169;23;20017;-69
2023/11/13 01:39:24;;;;;;;4.30;4.10;;;;;;;4.60;100.00;100207.59;6043718;23;20026;-69
2023/11/13 01:41:50;;;;;;;4.80;4.50;;;;;;;5.23;100.00;100287.69;6083723;23;20081;-68
2023/11/13 01:44:17;;;;;;;5.30;4.80;;;;;;;4.76;100.00;100200.09;6054777;23;20032;-69
2023/11/13 01:46:43;;;;;;;4.97;4.68;;;;;;;5.35;100.00;100273.38;6055671;23;20069;-69
2023/11/13 01:49:13;;;;;;;4.05;3.78;;;;;;;5.07;100.00;100239.72;6058046;23;20084;-68
2023/11/13 01:51:40;;;;;;;4.18;3.97;;;;;;;5.39;100.00;100264.53;6089324;23;20058;-68
2023/11/13 01:54:07;;;;;;;4.00;3.80;;;;;;;5.20;100.00;100212.38;6055945;23;20042;-68
2023/11/13 01:56:34;;;;;;;7.88;7.28;;;;;;;5.32;100.00;100222.31;6052213;23;20022;-69
2023/11/13 01:59:01;;;;;;;4.30;4.10;;;;;;;5.42;100.00;100228.00;6057639;23;20082;-70
2023/11/13 02:01:29;;;;;;;4.60;4.32;;;;;;;5.53;100.00;100235.41;6080696;23;20010;-69
2023/11/13 02:03:56;;;;;;;4.00;3.70;;;;;;;5.10;100.00;100175.44;6056571;23;20081;-68
2023/11/13 02:06:22;;;;;;;6.10;5.72;;;;;;;4.36;100.00;100044.81;6077915;23;20531;-69
2023/11/13 02:08:49;;;;;;;4.28;4.05;;;;;;;5.52;100.00;100223.31;6086150;23;20011;-69
2023/11/13 02:11:16;;;;;;;4.15;3.88;;;;;;;5.49;100.00;100219.06;6082593;23;20076;-70
2023/11/13 02:13:44;;;;;;;4.40;4.18;;;;;;;5.40;100.00;100199.44;6093132;23;20032;-71
2023/11/13 02:16:12;;;;;;;5.55;3.85;;;;;;;5.28;100.00;100152.25;6058186;23;20036;-71
2023/11/13 02:18:41;;;;;;;4.30;4.10;;;;;;;5.51;100.00;100186.03;6079855;23;20024;-68
2023/11/13 02:21:08;;;;;;;4.35;4.05;;;;;;;5.53;100.00;100193.75;6082658;23;20633;-70
2023/11/13 02:23:35;;;;;;;4.75;4.45;;;;;;;5.14;100.00;100125.00;6082984;23;20086;-69
2023/11/13 02:26:12;;;;;;;4.47;4.22;;;;;;;5.58;100.00;100190.06;6085232;23;20072;-69
2023/11/13 02:28:39;;;;;;;4.93;4.63;;;;;;;5.50;100.00;100160.91;6047010;23;20030;-68
2023/11/13 02:31:05;;;;;;;6.57;6.05;;;;;;;5.58;100.00;100173.59;6092114;23;20030;-69
2023/11/13 02:33:32;;;;;;;10.35;4.90;;;;;;;5.59;100.00;100181.38;6027284;23;20081;-69
2023/11/13 02:35:58;;;;;;;4.10;3.90;;;;;;;5.30;100.00;100140.03;6075862;23;20024;-68
2023/11/13 02:38:25;;;;;;;5.75;5.35;;;;;;;5.56;100.00;100170.22;6051770;23;20032;-68
2023/11/13 02:40:52;;;;;;;4.43;4.13;;;;;;;5.55;100.00;100171.13;6083090;23;20488;-69
2023/11/13 02:43:20;;;;;;;4.53;4.22;;;;;;;5.76;100.00;100188.47;6060653;23;20089;-68
2023/11/13 02:45:47;;;;;;;4.07;3.80;;;;;;;5.76;100.00;100180.66;6077456;23;20033;-68
2023/11/13 02:48:13;;;;;;;4.60;4.30;;;;;;;5.79;100.00;100182.28;6052491;23;20041;-69
2023/11/13 02:50:40;;;;;;;4.78;4.47;;;;;;;5.35;100.00;100101.66;6049424;23;20135;-69
2023/11/13 02:53:06;;;;;;;4.90;4.60;;;;;;;5.77;100.00;100169.38;6083717;23;20018;-69
2023/11/13 02:55:33;;;;;;;4.93;4.63;;;;;;;5.76;100.00;100159.84;6063179;23;20022;-68
2023/11/13 02:57:59;;;;;;;4.20;4.00;;;;;;;5.62;100.00;100122.28;6076097;23;20041;-68
2023/11/13 03:00:26;;;;;;;5.13;4.82;;;;;;;4.51;100.00;99944.63;6058409;23;20607;-68
2023/11/13 03:02:52;;;;;;;4.07;3.85;;;;;;;5.41;100.00;100098.78;6082528;23;20139;-69
2023/11/13 03:05:19;;;;;;;6.47;4.18;;;;;;;5.79;100.00;100151.91;6052715;23;20093;-68
2023/11/13 03:07:46;;;;;;;4.03;3.67;;;;;;;5.71;100.00;100133.16;6081397;23;20030;-71
2023/11/13 03:10:12;;;;;;;4.45;4.15;;;;;;;5.86;100.00;100149.91;6049582;23;20026;-68
2023/11/13 03:12:39;;;;;;;4.18;3.97;;;;;;;5.80;100.00;100140.56;6084703;23;20041;-70
2023/11/13 03:15:07;;;;;;;4.45;4.25;;;;;;;5.82;100.00;100143.13;6055231;23;20041;-70
2023/11/13 03:17:33;;;;;;;4.15;3.85;;;;;;;5.68;100.00;100122.88;6088331;23;20088;-68
2023/11/13 03:20:00;;;;;;;4.50;4.20;;;;;;;5.44;100.00;100079.63;6057691;23;20011;-69
2023/11/13 03:22:26;;;;;;;5.93;5.47;;;;;;;5.52;100.00;100100.97;6076742;23;20500;-69
2023/11/13 03:24:53;;;;;;;4.22;4.03;;;;;;;5.82;100.00;100150.94;6063794;23;20029;-69
2023/11/13 03:27:19;;;;;;;4.22;4.03;;;;;;;5.79;100.00;100177.09;6083180;23;20033;-70
2023/11/13 03:29:46;;;;;;;3.65;3.50;;;;;;;4.76;100.00;99984.34;6061828;23;20144;-69
2023/11/13 03:32:12;;;;;;;5.60;5.20;;;;;;;5.83;100.00;100165.63;6087585;23;20055;-69
2023/11/13 03:34:40;;;;;;;4.57;4.30;;;;;;;5.85;100.00;100173.38;6085287;23;20662;-68
2023/11/13 03:37:10;;;;;;;3.70;3.50;;;;;;;5.89;100.00;100174.97;6087439;23;20025;-69
2023/11/13 03:39:36;;;;;;;5.53;5.13;;;;;;;5.86;100.00;100191.56;6052936;23;20030;-69
2023/11/13 03:42:03;;;;;;;3.85;3.65;;;;;;;5.62;100.00;100156.97;6090411;23;20050;-69
2023/11/13 03:44:30;;;;;;;5.78;5.38;;;;;;;4.67;100.00;100023.72;6058187;23;20469;-69
2023/11/13 03:46:57;;;;;;;4.38;4.10;;;;;;;5.93;100.00;100223.41;6088843;23;20053;-68
2023/11/13 03:49:23;;;;;;;5.03;4.45;;;;;;;5.96;100.00;100221.56;6058602;23;20026;-68
2023/11/13 03:51:50;;;;;;;4.57;4.28;;;;;;;5.94;100.00;100225.13;6082364;23;20028;-69
2023/11/13 03:54:16;;;;;;;3.95;3.75;;;;;;;5.98;100.00;100222.34;6057694;23;20037;-69
2023/11/13 03:56:42;;;;;;;5.47;5.07;;;;;;;5.49;100.00;100146.19;6083807;23;20346;-69
2023/11/13 03:59:09;;;;;;;4.15;3.85;;;;;;;5.92;100.00;100232.13;6053424;23;20022;-68
2023/11/13 04:01:35;;;;;;;4.72;4.43;;;;;;;5.99;100.00;100234.47;6061385;23;20387;-69
2023/11/13 04:04:02;;;;;;;4.55;4.20;;;;;;;5.96;100.00;100231.13;6053147;23;20094;-69
2023/11/13 04:06:29;;;;;;;5.85;5.45;;;;;;;5.97;100.00;100233.69;6083772;23;20032;-69
2023/11/13 04:08:56;;;;;;;4.22;4.03;;;;;;;5.92;100.00;100221.72;6052353;23;20050;-69
2023/11/13 04:11:22;;;;;;;4.35;4.15;;;;;;;5.88;100.00;100234.00;6087444;23;20518;-69
2023/11/13 04:13:48;;;;;;;5.10;3.88;;;;;;;5.82;100.00;100228.22;6057633;23;20504;-69
2023/11/13 04:16:15;;;;;;;12.02;4.93;;;;;;;6.00;100.00;100250.94;6082901;23;20081;-68
2023/11/13 04:18:41;;;;;;;4.45;4.15;;;;;;;5.65;100.00;100190.66;6055103;23;20030;-69
2023/11/13 04:21:08;;;;;;;4.20;4.00;;;;;;;5.69;100.00;100215.69;6082907;23;20026;-71
2023/11/13 04:23:34;;;;;;;3.78;3.58;;;;;;;5.97;100.00;100261.47;6059590;23;20532;-67
2023/11/13 04:26:02;;;;;;;5.90;4.13;;;;;;;5.96;100.00;100258.03;6062767;23;20013;-67
2023/11/13 04:28:32;;;;;;;5.65;5.35;;;;;;;5.91;100.00;100246.06;6055646;23;20578;-68
2023/11/13 04:31:02;;;;;;;5.28;4.78;;;;;;;6.03;100.00;100281.22;6065985;23;20030;-68
2023/11/13 04:33:28;;;;;;;4.30;4.00;;;;;;;5.66;100.00;100225.38;6081855;23;20083;-69
2023/11/13 04:35:55;;;;;;;5.10;4.80;;;;;;;5.46;100.00;100198.34;6060584;23;20034;-68
2023/11/13 04:38:22;;;;;;;3.97;3.80;;;;;;;5.82;100.00;100246.44;6088820;23;20006;-68
2023/11/13 04:40:49;;;;;;;4.47;4.20;;;;;;;6.05;100.00;100272.41;6057144;23;20037;-69
2023/11/13 04:43:16;;;;;;;4.10;3.80;;;;;;;5.69;100.00;100231.31;6089730;23;20466;-69
2023/11/13 04:45:42;;;;;;;4.88;4.57;;;;;;;6.05;100.00;100289.81;6051170;23;20831;-69
2023/11/13 04:48:08;;;;;;;5.07;4.68;;;;;;;5.51;100.00;100205.97;6087293;23;20030;-68
2023/11/13 04:50:35;;;;;;;6.32;5.93;;;;;;;6.08;100.00;100303.56;6023905;23;20105;-69
2023/11/13 04:53:01;;;;;;;4.85;4.55;;;;;;;6.08;100.00;100302.75;6082173;23;20050;-68
2023/11/13 04:55:28;;;;;;;4.72;4.32;;;;;;;6.10;100.00;100299.16;6064895;23;20025;-68
2023/11/13 04:57:54;;;;;;;4.47;4.20;;;;;;;6.12;100.00;100307.75;6077873;23;20034;-68
2023/11/13 05:00:22;;;;;;;5.57;5.18;;;;;;;6.16;100.00;100313.69;6058051;23;20671;-68
2023/11/13 05:02:49;;;;;;;5.03;4.63;;;;;;;5.99;100.00;100281.34;6079928;23;20020;-68
2023/11/13 05:05:16;;;;;;;4.70;4.47;;;;;;;6.19;100.00;100303.13;6056050;23;20135;-68
2023/11/13 05:07:42;;;;;;;4.68;4.40;;;;;;;5.84;100.00;100227.25;6086826;23;20024;-70
2023/11/13 05:10:10;;;;;;;4.22;3.90;;;;;;;6.29;100.00;100287.97;6054978;23;20087;-68
2023/11/13 05:12:38;;;;;;;5.88;5.53;;;;;;;6.14;100.00;100258.19;6080488;23;20046;-69
2023/11/13 05:15:05;;;;;;;4.47;4.28;;;;;;;6.35;100.00;100291.19;6030847;23;20038;-69
2023/11/13 05:17:32;;;;;;;4.85;4.55;;;;;;;6.38;100.00;100283.22;6086906;23;20270;-69
2023/11/13 05:20:00;;;;;;;4.88;4.57;;;;;;;6.37;100.00;100275.47;6057381;23;20034;-69
2023/11/13 05:22:27;;;;;;;6.57;6.18;;;;;;;6.38;100.00;100279.78;6079362;23;20148;-68
2023/11/13 05:24:53;;;;;;;5.05;4.75;;;;;;;6.41;100.00;100282.25;6066965;23;20033;-69
2023/11/13 05:27:20;;;;;;;4.60;4.30;;;;;;;6.25;100.00;100248.16;6090117;23;20041;-69
2023/11/13 05:29:46;;;;;;;5.03;4.32;;;;;;;6.41;100.00;100276.19;6056594;23;20069;-68
2023/11/13 05:32:13;;;;;;;5.70;5.30;;;;;;;6.46;100.00;100290.75;6093956;23;20053;-68
2023/11/13 05:34:40;;;;;;;7.50;4.60;;;;;;;6.18;100.00;100234.56;6081016;23;20756;-68
2023/11/13 05:37:06;;;;;;;4.20;4.00;;;;;;;6.50;100.00;100279.28;6084155;23;20018;-68
2023/11/13 05:39:33;;;;;;;4.72;4.32;;;;;;;6.52;100.00;100268.78;6049549;23;20054;-68
2023/11/13 05:42:00;;;;;;;4.75;4.50;;;;;;;6.29;100.00;100235.84;6088445;23;20053;-69
2023/11/13 05:44:26;;;;;;;6.47;5.93;;;;;;;6.56;100.00;100275.56;6082166;23;20085;-68
2023/11/13 05:46:53;;;;;;;4.95;4.63;;;;;;;6.55;100.00;100268.63;6051709;23;20089;-69
2023/11/13 05:49:22;;;;;;;5.03;4.72;;;;;;;6.53;100.00;100271.31;6088720;23;20153;-68
2023/11/13 05:51:48;;;;;;;5.45;5.00;;;;;;;6.57;100.00;100264.22;6089379;23;20104;-69
2023/11/13 05:54:15;;;;;;;4.57;4.28;;;;;;;6.54;100.00;100251.31;6060497;23;20036;-69
2023/11/13 05:56:41;;;;;;;4.15;3.88;;;;;;;6.64;100.00;100254.38;6074798;23;20707;-69
2023/11/13 05:59:09;;;;;;;4.88;4.53;;;;;;;6.21;100.00;100175.41;6057730;23;20050;-69
2023/11/13 06:01:35;;;;;;;4.75;4.43;;;;;;;6.20;100.00;100185.00;6083704;23;20024;-69
2023/11/13 06:04:02;;;;;;;5.35;4.95;;;;;;;6.52;100.00;100227.09;6051674;23;20022;-69
2023/11/13 06:06:28;;;;;;;5.68;5.35;;;;;;;6.43;100.00;100217.03;6084779;23;20518;-70
2023/11/13 06:08:55;;;;;;;4.60;4.40;;;;;;;6.71;100.00;100256.63;6085045;23;20037;-68
2023/11/13 06:11:21;;;;;;;4.93;4.63;;;;;;;6.43;100.00;100188.38;6077948;23;20090;-69
2023/11/13 06:13:48;;;;;;;4.78;4.47;;;;;;;6.70;100.00;100246.31;6059740;23;20041;-70
2023/11/13 06:16:15;;;;;;;4.82;4.43;;;;;;;6.68;100.00;100232.47;6080589;23;20032;-69
2023/11/13 06:18:47;;;;;;;4.45;4.15;;;;;;;5.92;100.00;100115.78;6054936;23;20018;-69
2023/11/13 06:21:14;;;;;;;5.25;4.85;;;;;;;6.74;100.00;100237.44;6088097;23;19920;-68
2023/11/13 06:23:42;;;;;;;4.97;4.57;;;;;;;6.68;100.00;100243.75;6059627;23;20111;-69
2023/11/13 06:26:14;;;;;;;4.72;4.43;;;;;;;6.81;100.00;100246.66;6089320;23;20030;-69
2023/11/13 06:28:41;;;;;;;3.95;3.75;;;;;;;6.73;100.00;100231.34;6055414;23;20030;-68
2023/11/13 06:31:08;;;;;;;4.15;3.90;;;;;;;6.78;100.00;100229.38;6087573;23;20083;-69
2023/11/13 06:33:36;;;;;;;4.13;3.92;;;;;;;6.47;100.00;100193.38;6053771;23;20040;-69
2023/11/13 06:36:09;;;;;;;4.65;4.32;;;;;;;6.81;100.00;100230.16;6082775;23;20032;-69
2023/11/13 06:38:36;;;;;;;5.82;5.38;;;;;;;6.89;100.00;100233.28;6055863;23;20084;-68
2023/11/13 06:41:04;;;;;;;4.43;4.13;;;;;;;6.84;100.00;100236.09;6086923;23;20043;-69
2023/11/13 06:43:31;;;;;;;4.47;4.18;;;;;;;6.88;100.00;100234.22;6061783;23;20581;-69
2023/11/13 06:45:58;;;;;;;4.75;4.38;;;;;;;6.55;100.00;100185.22;6051995;23;20048;-68
2023/11/13 06:48:25;;;;;;;6.03;5.63;;;;;;;6.87;100.00;100235.13;6047699;23;20009;-69
2023/11/13 06:50:52;;;;;;;4.22;4.03;;;;;;;6.88;100.00;100242.88;6083569;23;20049;-69
2023/11/13 06:53:18;;;;;;;4.07;3.88;;;;;;;6.69;100.00;100206.31;6054351;23;20572;-68
2023/11/13 06:55:48;;;;;;;3.90;3.70;;;;;;;6.93;100.00;100243.50;6089489;23;20037;-68
2023/11/13 06:58:15;;;;;;;4.07;3.88;;;;;;;6.91;100.00;100253.16;6050676;23;20045;-68
2023/11/13 07:00:41;;;;;;;4.43;4.20;;;;;;;6.52;100.00;100178.38;6080048;23;20095;-69
2023/11/13 07:03:10;;;;;;;4.80;4.50;;;;;;;6.96;100.00;100258.19;6053416;23;20033;-68
2023/11/13 07:05:37;;;;;;;4.55;4.35;;;;;;;6.97;100.00;100260.72;6085032;23;20061;-68
2023/11/13 07:08:04;;;;;;;4.20;4.00;;;;;;;6.95;100.00;100256.50;6082539;23;20042;-69
2023/11/13 07:10:34;;;;;;;5.20;4.88;;;;;;;7.07;100.00;100261.16;6077781;23;20601;-69
2023/11/13 07:13:00;;;;;;;4.60;4.20;;;;;;;7.05;100.00;100268.19;6062525;23;20025;-70
2023/11/13 07:15:29;;;;;;;8.27;5.00;;;;;;;7.06;100.00;100284.72;6080496;23;20029;-70
2023/11/13 07:17:56;;;;;;;4.18;3.97;;;;;;;7.08;100.00;100272.47;6082734;23;20067;-71
2023/11/13 07:20:22;;;;;;;5.22;4.90;;;;;;;6.74;100.00;100217.41;6054277;23;20042;-69
2023/11/13 07:22:50;;;;;;;5.32;4.00;;;;;;;7.12;100.00;100269.63;6084895;23;20938;-70
2023/11/13 07:25:17;;;;;;;4.35;4.05;;;;;;;7.13;100.00;100273.91;6054645;23;20030;-71
2023/11/13 07:27:44;;;;;;;4.30;4.10;;;;;;;6.74;100.00;100213.94;6081520;23;20022;-70
2023/11/13 07:30:10;;;;;;;4.80;4.50;;;;;;;7.16;100.00;100273.81;6042811;23;21073;-68
2023/11/13 07:32:37;;;;;;;5.60;5.25;;;;;;;7.22;100.00;100279.66;6078111;23;20445;-69
2023/11/13 07:35:04;;;;;;;5.13;4.80;;;;;;;7.22;100.00;100266.59;6058357;23;20026;-69
2023/11/13 07:37:31;;;;;;;4.55;4.20;;;;;;;7.24;100.00;100270.84;6082559;23;20413;-69
2023/11/13 07:39:59;;;;;;;4.63;4.38;;;;;;;7.27;100.00;100265.47;6023746;23;20037;-69
2023/11/13 07:42:26;;;;;;;6.45;5.95;;;;;;;7.30;100.00;100256.69;6077405;23;20102;-70
2023/11/13 07:44:52;;;;;;;4.13;3.92;;;;;;;7.36;100.00;100259.00;6048918;23;20484;-68
2023/11/13 07:47:26;;;;;;;7.05;4.57;;;;;;;7.42;100.00;100256.13;6054490;23;20126;-68
2023/11/13 07:49:56;;;;;;;4.53;4.28;;;;;;;7.41;100.00;100261.41;6056695;23;20026;-69
2023/11/13 07:52:27;;;;;;;5.18;4.95;;;;;;;7.43;100.00;100267.41;6079641;23;20035;-69
2023/11/13 07:54:58;;;;;;;4.93;4.22;;;;;;;6.76;100.00;100168.63;6022095;23;20076;-69
2023/11/13 07:57:25;;;;;;;4.65;4.40;;;;;;;7.10;100.00;100215.84;6074215;23;20030;-68
2023/11/13 07:59:53;;;;;;;4.35;4.15;;;;;;;7.47;100.00;100272.41;6056531;23;20021;-70
2023/11/13 08:02:22;;;;;;;4.32;4.13;;;;;;;7.15;100.00;100204.25;6091861;23;20089;-69
2023/11/13 08:04:49;;;;;;;4.57;4.28;;;;;;;6.02;100.00;100013.84;6058481;23;20018;-69
2023/11/13 08:07:18;;;;;;;5.28;4.97;;;;;;;7.49;100.00;100241.84;6087111;23;20037;-70
2023/11/13 08:09:51;;;;;;;4.00;3.80;;;;;;;7.16;100.00;100172.03;6051989;23;20029;-69
2023/11/13 08:12:18;;;;;;;6.30;5.70;;;;;;;7.59;100.00;100237.88;6088850;23;20030;-69
2023/11/13 08:14:46;;;;;;;4.78;4.57;;;;;;;7.63;100.00;100222.91;6082726;23;20582;-70
2023/11/13 08:17:13;;;;;;;4.60;4.40;;;;;;;7.25;100.00;100143.81;6053019;23;20382;-70
2023/11/13 08:19:41;;;;;;;4.13;3.90;;;;;;;7.71;100.00;100207.72;6084780;23;20109;-69
2023/11/13 08:22:08;;;;;;;4.32;4.13;;;;;;;7.73;100.00;100208.50;6083208;23;20038;-69
2023/11/13 08:24:35;;;;;;;5.88;5.53;;;;;;;7.75;100.00;100213.66;6088562;23;20021;-71
2023/11/13 08:27:03;;;;;;;4.82;4.57;;;;;;;7.78;100.00;100209.13;6059318;23;20580;-70
2023/11/13 08:29:32;;;;;;;4.20;4.00;;;;;;;7.83;100.00;100208.06;6037302;23;20067;-69
2023/11/13 08:31:59;;;;;;;4.90;4.60;;;;;;;7.48;100.00;100146.16;6087540;23;20033;-69
2023/11/13 08:34:25;;;;;;;8.38;5.47;;;;;;;7.48;100.00;100134.88;6032217;23;20019;-69
2023/11/13 08:36:52;;;;;;;4.43;4.20;;;;;;;7.95;100.00;100186.56;6057305;23;20516;-69
2023/11/13 08:39:21;;;;;;;4.20;4.00;;;;;;;7.95;100.00;100169.09;6047773;23;20110;-69
2023/11/13 08:41:48;;;;;;;4.55;4.35;;;;;;;7.71;100.00;100125.91;6092813;23;20020;-70
2023/11/13 08:44:14;;;;;;;4.65;4.35;;;;;;;7.80;100.00;100128.09;6058481;23;20078;-70
2023/11/13 08:46:41;;;;;;;4.45;4.25;;;;;;;8.09;100.00;100175.41;6080670;23;20022;-68
2023/11/13 08:49:08;;;;;;;4.32;4.13;;;;;;;8.05;100.00;100161.66;6062049;23;20057;-70
2023/11/13 08:51:38;;;;;;;4.55;4.30;;;;;;;8.21;100.00;100177.41;6084941;23;20041;-70
2023/11/13 08:54:04;;;;;;;6.13;4.10;;;;;;;8.17;100.00;100168.88;6059292;23;20617;-69
2023/11/13 08:56:31;;;;;;;11.07;6.20;;;;;;;8.28;100.00;100173.56;6080699;23;20113;-69
2023/11/13 08:58:58;;;;;;;4.90;4.60;;;;;;;8.25;100.00;100149.34;6061420;23;20029;-70
2023/11/13 09:01:26;;;;;;;4.13;3.92;;;;;;;8.33;100.00;100153.25;6057924;23;20637;-69
2023/11/13 09:03:54;;;;;;;4.47;4.25;;;;;;;8.12;100.00;100123.00;6054728;23;20033;-70
2023/11/13 09:06:22;;;;;;;4.47;4.28;;;;;;;8.46;100.00;100156.13;6081194;23;20862;-69
2023/11/13 09:08:53;;;;;;;4.68;4.40;;;;;;;8.14;100.00;100081.94;6049821;23;20040;-71
2023/11/13 09:11:22;;;;;;;7.20;4.93;;;;;;;8.54;100.00;100137.41;6085320;23;20028;-70
2023/11/13 09:13:49;;;;;;;4.40;4.20;;;;;;;8.41;100.00;100116.28;6058317;23;20041;-69
2023/11/13 09:16:17;;;;;;;7.75;4.78;;;;;;;8.43;100.00;100108.34;6078952;23;20630;-70
2023/11/13 09:18:48;;;;;;;3.95;3.75;;;;;;;8.62;100.00;100118.66;6054596;23;20026;-70
2023/11/13 09:21:17;;;;;;;4.93;4.53;;;;;;;8.44;100.00;100073.44;6088237;23;20588;-71
2023/11/13 09:23:47;;;;;;;6.30;4.32;;;;;;;8.72;100.00;100112.88;6056494;23;20704;-70
2023/11/13 09:26:13;;;;;;;4.13;3.92;;;;;;;8.68;100.00;100092.19;6063794;23;20026;-70
2023/11/13 09:28:40;;;;;;;4.95;4.68;;;;;;;8.59;100.00;100090.91;6051385;23;20070;-71
2023/11/13 09:31:09;;;;;;;4.18;3.97;;;;;;;8.72;100.00;100105.03;6084797;23;20046;-70
2023/11/13 09:33:39;;;;;;;4.13;3.92;;;;;;;8.30;100.00;100014.88;6047872;23;20023;-70
2023/11/13 09:36:09;;;;;;;4.18;3.97;;;;;;;8.75;100.00;100086.53;6082901;23;20628;-69
2023/11/13 09:38:35;;;;;;;5.78;5.32;;;;;;;8.81;100.00;100087.16;6046223;23;20030;-70
2023/11/13 09:41:03;;;;;;;4.38;4.18;;;;;;;8.33;100.00;99992.94;6084077;23;20084;-69
2023/11/13 09:43:34;;;;;;;5.00;4.60;;;;;;;8.55;100.00;100008.31;6055181;23;20364;-70
2023/11/13 09:46:03;;;;;;;4.47;4.20;;;;;;;8.84;100.00;99993.63;6078279;23;20080;-71
2023/11/13 09:48:34;;;;;;;5.82;5.53;;;;;;;8.58;100.00;99948.84;6054369;23;20406;-70
2023/11/13 09:51:02;;;;;;;4.00;3.80;;;;;;;8.38;100.00;99900.25;6077672;23;20055;-71
2023/11/13 09:53:33;;;;;;;4.32;4.03;;;;;;;8.97;100.00;99994.63;6051825;23;20686;-70
2023/11/13 09:56:00;;;;;;;4.40;4.15;;;;;;;8.96;100.00;100006.03;6088216;23;20034;-70
2023/11/13 09:58:28;;;;;;;6.07;5.78;;;;;;;8.74;100.00;99968.91;6075191;23;20028;-70
2023/11/13 10:00:55;;;;;;;4.25;4.05;;;;;;;8.84;100.00;99961.38;6086379;23;20029;-71
2023/11/13 10:03:22;;;;;;;4.60;4.18;;;;;;;8.78;100.00;99947.72;6080808;23;20045;-69
2023/11/13 10:05:50;;;;;;;4.38;4.07;;;;;;;8.99;100.00;99965.75;6082989;23;20025;-70
2023/11/13 10:08:17;;;;;;;4.90;4.60;;;;;;;8.85;100.00;99953.44;6050910;23;20753;-71
2023/11/13 10:10:45;;;;;;;4.53;4.32;;;;;;;9.05;100.00;99975.03;6059677;23;20420;-70
2023/11/13 10:13:13;;;;;;;4.22;4.00;;;;;;;9.16;100.00;99996.16;6051857;23;20040;-70
2023/11/13 10:15:44;;;;;;;4.30;4.10;;;;;;;9.15;100.00;99961.31;6082549;23;20033;-69
2023/11/13 10:18:14;;;;;;;4.50;4.20;;;;;;;9.08;100.00;99954.75;6053424;23;20056;-71
2023/11/13 10:20:46;;;;;;;4.50;4.20;;;;;;;9.18;100.00;99950.66;6085715;23;20037;-70
2023/11/13 10:23:15;;;;;;;4.35;4.15;;;;;;;9.00;100.00;99912.50;6049184;23;20018;-71
2023/11/13 10:25:59;;;;;;;4.90;4.60;;;;;;;9.24;100.00;99919.81;6080159;23;20018;-70
2023/11/13 10:28:51;;;;;;;5.50;5.20;;;;;;;9.31;100.00;99897.56;6053547;23;20019;-70
2023/11/13 10:31:23;;;;;;;3.90;3.70;;;;;;;9.18;100.00;99873.88;6082173;23;20087;-70
2023/11/13 10:34:02;;;;;;;4.00;3.80;;;;;;;9.39;100.00;99892.72;6050275;23;20449;-70
2023/11/13 10:36:29;;;;;;;5.68;5.28;;;;;;;9.22;100.00;99858.84;6083156;23;20026;-71
2023/11/13 10:38:59;;;;;;;7.10;3.78;;;;;;;9.41;100.00;99867.28;6053066;23;20091;-70
2023/11/13 10:41:33;;;;;;;5.00;4.70;;;;;;;9.15;100.00;99800.78;6084543;23;20144;-73
2023/11/13 10:44:19;;;;;;;4.70;4.50;;;;;;;9.25;100.00;99806.31;6060844;23;20022;-69
2023/11/13 10:46:45;;;;;;;13.85;4.80;;;;;;;9.64;100.00;99846.69;6086391;23;20086;-71
2023/11/13 10:49:12;;;;;;;7.63;5.57;;;;;;;9.49;100.00;99796.94;6053021;23;20049;-69
2023/11/13 10:51:41;;;;;;;4.55;4.35;;;;;;;9.52;100.00;99774.94;6083116;23;20036;-70
2023/11/13 10:54:08;;;;;;;4.13;3.92;;;;;;;9.56;100.00;99787.78;6056535;23;20078;-71
2023/11/13 10:56:35;;;;;;;5.55;5.25;;;;;;;9.79;100.00;99803.81;6082659;23;20041;-70
2023/11/13 10:59:02;;;;;;;4.18;3.97;;;;;;;9.45;100.00;99739.63;6058601;23;20016;-70
2023/11/13 11:01:29;;;;;;;5.07;4.68;;;;;;;9.71;100.00;99783.34;6086157;23;20081;-70
2023/11/13 11:03:58;;;;;;;4.95;4.55;;;;;;;9.81;100.00;99773.13;6047703;23;20011;-69
2023/11/13 11:06:32;;;;;;;5.93;5.53;;;;;;;9.38;100.00;99700.72;6081912;23;20029;-71
2023/11/13 11:09:04;;;;;;;4.55;4.35;;;;;;;9.90;100.00;99763.81;6084483;23;20014;-69
2023/11/13 11:11:34;;;;;;;4.65;4.35;;;;;;;9.85;100.00;99737.06;6060394;23;20678;-69
2023/11/13 11:14:17;;;;;;;4.70;4.30;;;;;;;9.55;100.00;99690.94;6057818;23;20040;-70
2023/11/13 11:16:48;;;;;;;5.28;4.97;;;;;;;9.86;100.00;99725.63;6049386;23;20676;-69
2023/11/13 11:19:27;;;;;;;4.35;4.15;;;;;;;9.61;100.00;99689.72;6082962;23;20025;-70
2023/11/13 11:22:13;;;;;;;4.97;4.57;;;;;;;9.95;100.00;99725.88;6047641;23;20947;-70
2023/11/13 11:24:57;;;;;;;5.20;4.70;;;;;;;10.00;100.00;99722.97;6076649;23;20044;-70
2023/11/13 11:27:41;;;;;;;4.82;4.63;;;;;;;9.45;100.00;99609.50;6075419;23;20472;-70
2023/11/13 11:30:31;;;;;;;4.25;4.00;;;;;;;9.93;100.00;99669.28;6079569;23;20579;-71